sensor_id;sensor_type;location;lat;lon;timestamp;temperature;humidity
4207;DHT22;2117;47.972;7.830;2023-07-02T01:02:17;18.40;99.90
4207;DHT22;2117;47.972;7.830;2023-07-02T01:04:42;18.40;99.90
4207;DHT22;2117;47.972;7.830;2023-07-02T01:07:10;18.40;99.90
4207;DHT22;2117;47.972;7.830;2023-07-02T01:09:36;18.30;99.90
4207;DHT22;2117;47.972;7.830;2023-07-02T01:12:05;18.40;99.90
4207;DHT22;2117;47.972;7.830;2023-07-02T01:14:38;18.30;99.90
4207;DHT22;2117;47.972;7.830;2023-07-02T01:17:06;18.40;99.90
4207;DHT22;2117;47.972;7.830;2023-07-02T01:19:47;18.30;99.90
4207;DHT22;2117;47.972;7.830;2023-07-02T01:22:24;18.40;99.90
4207;DHT22;2117;47.972;7.830;2023-07-02T01:24:50;18.40;99.90
4207;DHT22;2117;47.972;7.830;2023-07-02T01:27:16;18.40;99.90
4207;DHT22;2117;47.972;7.830;2023-07-02T01:29:43;18.40;99.90
4207;DHT22;2117;47.972;7.830;2023-07-02T01:32:10;18.40;99.90
4207;DHT22;2117;47.972;7.830;2023-07-02T01:34:36;18.30;99.90
4207;DHT22;2117;47.972;7.830;2023-07-02T01:37:04;18.30;99.90
4207;DHT22;2117;47.972;7.830;2023-07-02T01:39:30;18.40;99.90
4207;DHT22;2117;47.972;7.830;2023-07-02T01:44:33;18.40;99.90
4207;DHT22;2117;47.972;7.830;2023-07-02T01:46:59;18.40;99.90
4207;DHT22;2117;47.972;7.830;2023-07-02T01:49:24;18.40;99.90
4207;DHT22;2117;47.972;7.830;2023-07-02T01:51:54;18.40;99.90
4207;DHT22;2117;47.972;7.830;2023-07-02T01:54:22;18.40;99.90
4207;DHT22;2117;47.972;7.830;2023-07-02T01:56:48;18.40;99.90
4207;DHT22;2117;47.972;7.830;2023-07-02T01:59:13;18.40;99.90
4207;DHT22;2117;47.972;7.830;2023-07-02T02:01:40;18.30;99.90
4207;DHT22;2117;47.972;7.830;2023-07-02T02:04:09;18.30;99.90
4207;DHT22;2117;47.972;7.830;2023-07-02T02:06:36;18.30;99.90
4207;DHT22;2117;47.972;7.830;2023-07-02T02:09:02;18.30;99.90
4207;DHT22;2117;47.972;7.830;2023-07-02T02:11:29;18.20;99.90
4207;DHT22;2117;47.972;7.830;2023-07-02T02:13:55;18.20;99.90
4207;DHT22;2117;47.972;7.830;2023-07-02T02:16:21;18.20;99.90
4207;DHT22;2117;47.972;7.830;2023-07-02T02:18:47;18.20;99.90
4207;DHT22;2117;47.972;7.830;2023-07-02T02:21:12;18.20;99.90
4207;DHT22;2117;47.972;7.830;2023-07-02T02:23:38;18.20;99.90
4207;DHT22;2117;47.972;7.830;2023-07-02T02:26:03;18.20;99.90
4207;DHT22;2117;47.972;7.830;2023-07-02T02:28:29;18.20;99.90
4207;DHT22;2117;47.972;7.830;2023-07-02T02:30:54;18.20;99.90
4207;DHT22;2117;47.972;7.830;2023-07-02T02:33:21;18.10;99.90
4207;DHT22;2117;47.972;7.830;2023-07-02T02:35:47;18.10;99.90
4207;DHT22;2117;47.972;7.830;2023-07-02T02:38:13;18.20;99.90
4207;DHT22;2117;47.972;7.830;2023-07-02T02:40:40;18.10;99.90
4207;DHT22;2117;47.972;7.830;2023-07-02T02:43:05;18.20;99.90
4207;DHT22;2117;47.972;7.830;2023-07-02T02:45:31;18.20;99.90
4207;DHT22;2117;47.972;7.830;2023-07-02T02:47:56;18.10;99.90
4207;DHT22;2117;47.972;7.830;2023-07-02T02:50:22;18.10;99.90
4207;DHT22;2117;47.972;7.830;2023-07-02T02:52:48;18.10;99.90
4207;DHT22;2117;47.972;7.830;2023-07-02T02:55:13;18.10;99.90
4207;DHT22;2117;47.972;7.830;2023-07-02T02:57:39;18.10;99.90
4207;DHT22;2117;47.972;7.830;2023-07-02T03:00:05;18.10;99.90
4207;DHT22;2117;47.972;7.830;2023-07-02T03:02:32;18.00;99.90
4207;DHT22;2117;47.972;7.830;2023-07-02T03:04:57;18.00;99.90
4207;DHT22;2117;47.972;7.830;2023-07-02T03:07:28;18.00;99.90
4207;DHT22;2117;47.972;7.830;2023-07-02T03:09:54;18.00;99.90
4207;DHT22;2117;47.972;7.830;2023-07-02T03:12:19;18.00;99.90
4207;DHT22;2117;47.972;7.830;2023-07-02T03:14:45;18.00;99.90
4207;DHT22;2117;47.972;7.830;2023-07-02T03:17:13;18.00;99.90
4207;DHT22;2117;47.972;7.830;2023-07-02T03:19:38;18.00;99.90
4207;DHT22;2117;47.972;7.830;2023-07-02T03:22:04;18.00;99.90
4207;DHT22;2117;47.972;7.830;2023-07-02T03:24:30;18.00;99.90
4207;DHT22;2117;47.972;7.830;2023-07-02T03:26:55;18.00;99.90
4207;DHT22;2117;47.972;7.830;2023-07-02T03:29:21;18.00;99.90
4207;DHT22;2117;47.972;7.830;2023-07-02T03:31:46;18.00;99.90
4207;DHT22;2117;47.972;7.830;2023-07-02T03:34:12;18.00;99.90
4207;DHT22;2117;47.972;7.830;2023-07-02T03:36:38;18.00;99.90
4207;DHT22;2117;47.972;7.830;2023-07-02T03:39:04;18.00;99.90
4207;DHT22;2117;47.972;7.830;2023-07-02T03:41:29;18.00;99.90
4207;DHT22;2117;47.972;7.830;2023-07-02T03:43:55;18.00;99.90
4207;DHT22;2117;47.972;7.830;2023-07-02T03:46:20;18.00;99.90
4207;DHT22;2117;47.972;7.830;2023-07-02T03:48:46;18.00;99.90
4207;DHT22;2117;47.972;7.830;2023-07-02T03:51:12;18.00;99.90
4207;DHT22;2117;47.972;7.830;2023-07-02T03:53:41;18.00;99.90
4207;DHT22;2117;47.972;7.830;2023-07-02T03:56:07;18.00;99.90
4207;DHT22;2117;47.972;7.830;2023-07-02T03:58:32;18.00;99.90
4207;DHT22;2117;47.972;7.830;2023-07-02T04:00:59;18.00;99.90
4207;DHT22;2117;47.972;7.830;2023-07-02T04:03:24;18.00;99.90
4207;DHT22;2117;47.972;7.830;2023-07-02T04:05:50;17.90;99.90
4207;DHT22;2117;47.972;7.830;2023-07-02T04:08:16;18.00;99.90
4207;DHT22;2117;47.972;7.830;2023-07-02T04:10:41;17.90;99.90
4207;DHT22;2117;47.972;7.830;2023-07-02T04:13:07;18.00;99.90
4207;DHT22;2117;47.972;7.830;2023-07-02T04:15:33;18.00;99.90
4207;DHT22;2117;47.972;7.830;2023-07-02T04:17:59;18.00;99.90
4207;DHT22;2117;47.972;7.830;2023-07-02T04:20:25;17.90;99.90
4207;DHT22;2117;47.972;7.830;2023-07-02T04:22:51;17.90;99.90
4207;DHT22;2117;47.972;7.830;2023-07-02T04:25:17;17.90;99.90
4207;DHT22;2117;47.972;7.830;2023-07-02T04:27:43;17.90;99.90
4207;DHT22;2117;47.972;7.830;2023-07-02T04:30:10;17.90;99.90
4207;DHT22;2117;47.972;7.830;2023-07-02T04:32:37;17.80;99.90
4207;DHT22;2117;47.972;7.830;2023-07-02T04:35:08;17.80;99.90
4207;DHT22;2117;47.972;7.830;2023-07-02T04:37:34;17.90;99.90
4207;DHT22;2117;47.972;7.830;2023-07-02T04:40:00;17.80;99.90
4207;DHT22;2117;47.972;7.830;2023-07-02T04:42:26;17.80;99.90
4207;DHT22;2117;47.972;7.830;2023-07-02T04:44:55;17.90;99.90
4207;DHT22;2117;47.972;7.830;2023-07-02T04:47:21;17.80;99.90
4207;DHT22;2117;47.972;7.830;2023-07-02T04:49:47;17.80;99.90
4207;DHT22;2117;47.972;7.830;2023-07-02T04:52:12;17.80;99.90
4207;DHT22;2117;47.972;7.830;2023-07-02T04:54:38;17.80;99.90
4207;DHT22;2117;47.972;7.830;2023-07-02T04:57:04;17.80;99.90
4207;DHT22;2117;47.972;7.830;2023-07-02T04:59:29;17.80;99.90
4207;DHT22;2117;47.972;7.830;2023-07-02T05:01:55;17.80;99.90
4207;DHT22;2117;47.972;7.830;2023-07-02T05:04:20;17.90;99.90
4207;DHT22;2117;47.972;7.830;2023-07-02T05:06:46;18.00;99.90
4207;DHT22;2117;47.972;7.830;2023-07-02T05:09:11;18.00;99.90
4207;DHT22;2117;47.972;7.830;2023-07-02T05:11:37;18.00;99.90
4207;DHT22;2117;47.972;7.830;2023-07-02T05:14:03;17.90;99.90
4207;DHT22;2117;47.972;7.830;2023-07-02T05:16:28;18.00;99.90
4207;DHT22;2117;47.972;7.830;2023-07-02T05:18:54;18.10;99.90
4207;DHT22;2117;47.972;7.830;2023-07-02T05:21:20;18.20;99.90
4207;DHT22;2117;47.972;7.830;2023-07-02T05:23:46;18.30;99.90
4207;DHT22;2117;47.972;7.830;2023-07-02T05:26:12;18.30;99.90
4207;DHT22;2117;47.972;7.830;2023-07-02T05:28:38;18.30;99.90
4207;DHT22;2117;47.972;7.830;2023-07-02T05:31:03;18.40;99.90
4207;DHT22;2117;47.972;7.830;2023-07-02T05:33:29;18.40;99.90
4207;DHT22;2117;47.972;7.830;2023-07-02T05:35:56;18.60;99.90
4207;DHT22;2117;47.972;7.830;2023-07-02T05:38:22;18.60;99.90
4207;DHT22;2117;47.972;7.830;2023-07-02T05:40:47;18.70;99.90
4207;DHT22;2117;47.972;7.830;2023-07-02T05:45:39;18.70;99.90
4207;DHT22;2117;47.972;7.830;2023-07-02T05:48:05;18.80;99.90
4207;DHT22;2117;47.972;7.830;2023-07-02T05:50:30;18.80;99.90
4207;DHT22;2117;47.972;7.830;2023-07-02T05:52:56;18.80;99.90
4207;DHT22;2117;47.972;7.830;2023-07-02T05:55:22;18.80;99.90
4207;DHT22;2117;47.972;7.830;2023-07-02T05:57:48;18.90;99.90
4207;DHT22;2117;47.972;7.830;2023-07-02T06:00:14;18.90;99.90
4207;DHT22;2117;47.972;7.830;2023-07-02T06:02:40;18.90;99.90
4207;DHT22;2117;47.972;7.830;2023-07-02T06:05:06;19.00;99.90
4207;DHT22;2117;47.972;7.830;2023-07-02T06:07:31;19.00;99.90
4207;DHT22;2117;47.972;7.830;2023-07-02T06:09:57;19.00;99.90
4207;DHT22;2117;47.972;7.830;2023-07-02T06:17:14;19.00;99.90
4207;DHT22;2117;47.972;7.830;2023-07-02T06:19:40;19.00;99.90
4207;DHT22;2117;47.972;7.830;2023-07-02T06:22:06;19.00;99.90
4207;DHT22;2117;47.972;7.830;2023-07-02T06:24:32;19.00;99.90
4207;DHT22;2117;47.972;7.830;2023-07-02T06:26:57;19.00;99.90
4207;DHT22;2117;47.972;7.830;2023-07-02T06:29:23;19.00;99.90
4207;DHT22;2117;47.972;7.830;2023-07-02T06:31:50;19.00;99.90
4207;DHT22;2117;47.972;7.830;2023-07-02T06:34:16;19.10;99.90
4207;DHT22;2117;47.972;7.830;2023-07-02T06:39:08;19.10;99.90
4207;DHT22;2117;47.972;7.830;2023-07-02T06:41:35;19.20;99.90
4207;DHT22;2117;47.972;7.830;2023-07-02T06:48:52;19.30;99.90
4207;DHT22;2117;47.972;7.830;2023-07-02T06:51:18;19.30;99.90
4207;DHT22;2117;47.972;7.830;2023-07-02T06:53:44;19.30;99.90
4207;DHT22;2117;47.972;7.830;2023-07-02T06:56:10;19.20;99.90
4207;DHT22;2117;47.972;7.830;2023-07-02T06:58:36;19.20;99.90
4207;DHT22;2117;47.972;7.830;2023-07-02T07:01:02;19.10;99.90
4207;DHT22;2117;47.972;7.830;2023-07-02T07:03:28;19.20;99.90
4207;DHT22;2117;47.972;7.830;2023-07-02T07:05:53;19.20;99.90
4207;DHT22;2117;47.972;7.830;2023-07-02T07:08:19;19.20;99.90
4207;DHT22;2117;47.972;7.830;2023-07-02T07:10:45;19.30;99.90
4207;DHT22;2117;47.972;7.830;2023-07-02T07:13:14;19.30;99.90
4207;DHT22;2117;47.972;7.830;2023-07-02T07:15:39;19.30;99.90
4207;DHT22;2117;47.972;7.830;2023-07-02T07:18:05;19.40;99.90
4207;DHT22;2117;47.972;7.830;2023-07-02T07:20:31;19.50;99.90
4207;DHT22;2117;47.972;7.830;2023-07-02T07:22:56;19.50;99.90
4207;DHT22;2117;47.972;7.830;2023-07-02T07:25:22;19.60;99.90
4207;DHT22;2117;47.972;7.830;2023-07-02T07:27:48;19.60;99.90
4207;DHT22;2117;47.972;7.830;2023-07-02T07:30:14;19.60;99.90
4207;DHT22;2117;47.972;7.830;2023-07-02T07:32:40;19.60;99.90
4207;DHT22;2117;47.972;7.830;2023-07-02T07:35:07;19.60;99.90
4207;DHT22;2117;47.972;7.830;2023-07-02T07:37:33;19.60;99.90
4207;DHT22;2117;47.972;7.830;2023-07-02T07:39:58;19.80;99.90
4207;DHT22;2117;47.972;7.830;2023-07-02T07:42:24;19.90;99.90
4207;DHT22;2117;47.972;7.830;2023-07-02T07:44:50;19.90;99.90
4207;DHT22;2117;47.972;7.830;2023-07-02T07:47:15;19.90;99.90
4207;DHT22;2117;47.972;7.830;2023-07-02T07:49:41;19.80;99.90
4207;DHT22;2117;47.972;7.830;2023-07-02T07:52:07;19.80;99.90
4207;DHT22;2117;47.972;7.830;2023-07-02T07:54:34;19.80;99.90
4207;DHT22;2117;47.972;7.830;2023-07-02T07:57:01;19.90;99.90
4207;DHT22;2117;47.972;7.830;2023-07-02T07:59:27;19.90;99.90
4207;DHT22;2117;47.972;7.830;2023-07-02T08:01:52;20.00;99.90
4207;DHT22;2117;47.972;7.830;2023-07-02T08:04:18;20.10;99.90
4207;DHT22;2117;47.972;7.830;2023-07-02T08:06:43;20.10;99.90
4207;DHT22;2117;47.972;7.830;2023-07-02T08:09:09;20.20;99.90
4207;DHT22;2117;47.972;7.830;2023-07-02T08:11:35;20.10;99.90
4207;DHT22;2117;47.972;7.830;2023-07-02T08:14:01;20.20;99.90
4207;DHT22;2117;47.972;7.830;2023-07-02T08:16:26;20.00;99.90
4207;DHT22;2117;47.972;7.830;2023-07-02T08:18:52;20.10;99.90
4207;DHT22;2117;47.972;7.830;2023-07-02T08:21:17;20.20;99.90
4207;DHT22;2117;47.972;7.830;2023-07-02T08:23:43;20.30;99.90
4207;DHT22;2117;47.972;7.830;2023-07-02T08:26:10;20.50;99.90
4207;DHT22;2117;47.972;7.830;2023-07-02T08:28:36;20.50;99.90
4207;DHT22;2117;47.972;7.830;2023-07-02T08:31:03;20.50;99.90
4207;DHT22;2117;47.972;7.830;2023-07-02T08:33:29;20.50;99.90
4207;DHT22;2117;47.972;7.830;2023-07-02T08:35:55;20.50;99.90
4207;DHT22;2117;47.972;7.830;2023-07-02T08:38:21;20.50;99.90
4207;DHT22;2117;47.972;7.830;2023-07-02T08:40:46;20.60;99.90
4207;DHT22;2117;47.972;7.830;2023-07-02T08:43:14;20.60;99.90
4207;DHT22;2117;47.972;7.830;2023-07-02T08:45:41;20.70;99.90
4207;DHT22;2117;47.972;7.830;2023-07-02T08:48:07;20.70;99.90
4207;DHT22;2117;47.972;7.830;2023-07-02T08:50:33;20.70;99.90
4207;DHT22;2117;47.972;7.830;2023-07-02T08:52:59;20.50;99.90
4207;DHT22;2117;47.972;7.830;2023-07-02T08:55:24;20.60;99.90
4207;DHT22;2117;47.972;7.830;2023-07-02T08:57:53;20.60;99.90
4207;DHT22;2117;47.972;7.830;2023-07-02T09:00:19;20.60;99.90
4207;DHT22;2117;47.972;7.830;2023-07-02T09:02:45;20.60;99.90
4207;DHT22;2117;47.972;7.830;2023-07-02T09:05:12;20.60;99.90
4207;DHT22;2117;47.972;7.830;2023-07-02T09:07:48;20.40;99.90
4207;DHT22;2117;47.972;7.830;2023-07-02T09:10:27;20.20;99.90
4207;DHT22;2117;47.972;7.830;2023-07-02T09:13:07;20.20;99.90
4207;DHT22;2117;47.972;7.830;2023-07-02T09:15:37;20.30;99.90
4207;DHT22;2117;47.972;7.830;2023-07-02T09:18:03;20.50;99.90
4207;DHT22;2117;47.972;7.830;2023-07-02T09:20:39;20.60;99.90
4207;DHT22;2117;47.972;7.830;2023-07-02T09:23:04;20.70;99.90
4207;DHT22;2117;47.972;7.830;2023-07-02T09:25:40;20.80;99.90
4207;DHT22;2117;47.972;7.830;2023-07-02T09:28:22;20.90;99.90
4207;DHT22;2117;47.972;7.830;2023-07-02T09:30:52;21.00;99.90
4207;DHT22;2117;47.972;7.830;2023-07-02T09:33:18;21.00;99.90
4207;DHT22;2117;47.972;7.830;2023-07-02T09:35:43;21.20;99.90
4207;DHT22;2117;47.972;7.830;2023-07-02T09:38:10;21.40;99.90
4207;DHT22;2117;47.972;7.830;2023-07-02T09:40:46;21.60;99.90
4207;DHT22;2117;47.972;7.830;2023-07-02T09:43:13;21.70;99.90
4207;DHT22;2117;47.972;7.830;2023-07-02T09:45:43;21.80;99.90
4207;DHT22;2117;47.972;7.830;2023-07-02T09:48:13;21.90;99.90
4207;DHT22;2117;47.972;7.830;2023-07-02T09:50:43;22.00;99.90
4207;DHT22;2117;47.972;7.830;2023-07-02T09:53:10;22.00;99.90
4207;DHT22;2117;47.972;7.830;2023-07-02T09:55:38;22.10;99.90
4207;DHT22;2117;47.972;7.830;2023-07-02T09:58:04;22.10;99.90
4207;DHT22;2117;47.972;7.830;2023-07-02T10:00:30;22.30;99.90
4207;DHT22;2117;47.972;7.830;2023-07-02T10:02:56;22.30;99.90
4207;DHT22;2117;47.972;7.830;2023-07-02T10:05:28;22.20;99.90
4207;DHT22;2117;47.972;7.830;2023-07-02T10:07:59;22.40;99.90
4207;DHT22;2117;47.972;7.830;2023-07-02T10:10:36;22.40;99.90
4207;DHT22;2117;47.972;7.830;2023-07-02T10:13:02;22.50;99.90
4207;DHT22;2117;47.972;7.830;2023-07-02T10:15:28;22.50;99.90
4207;DHT22;2117;47.972;7.830;2023-07-02T10:17:58;22.40;99.90
4207;DHT22;2117;47.972;7.830;2023-07-02T10:20:38;22.50;99.90
4207;DHT22;2117;47.972;7.830;2023-07-02T10:23:06;22.40;99.90
4207;DHT22;2117;47.972;7.830;2023-07-02T10:25:33;22.40;99.90
4207;DHT22;2117;47.972;7.830;2023-07-02T10:28:01;22.40;99.90
4207;DHT22;2117;47.972;7.830;2023-07-02T10:30:45;22.50;99.90
4207;DHT22;2117;47.972;7.830;2023-07-02T10:33:13;22.50;99.90
4207;DHT22;2117;47.972;7.830;2023-07-02T10:35:40;22.40;99.90
4207;DHT22;2117;47.972;7.830;2023-07-02T10:38:18;22.40;99.90
4207;DHT22;2117;47.972;7.830;2023-07-02T10:40:44;22.60;99.90
4207;DHT22;2117;47.972;7.830;2023-07-02T10:43:09;22.60;99.90
4207;DHT22;2117;47.972;7.830;2023-07-02T10:45:35;22.50;99.90
4207;DHT22;2117;47.972;7.830;2023-07-02T10:48:10;22.50;99.90
4207;DHT22;2117;47.972;7.830;2023-07-02T10:50:36;22.50;99.90
4207;DHT22;2117;47.972;7.830;2023-07-02T10:53:03;22.40;99.90
4207;DHT22;2117;47.972;7.830;2023-07-02T10:55:28;22.30;99.90
4207;DHT22;2117;47.972;7.830;2023-07-02T10:58:08;22.20;99.90
4207;DHT22;2117;47.972;7.830;2023-07-02T11:00:50;22.20;99.90
4207;DHT22;2117;47.972;7.830;2023-07-02T11:03:20;22.20;99.90
4207;DHT22;2117;47.972;7.830;2023-07-02T11:05:46;22.20;99.90
4207;DHT22;2117;47.972;7.830;2023-07-02T11:08:12;22.20;99.90
4207;DHT22;2117;47.972;7.830;2023-07-02T11:10:38;22.00;99.90
4207;DHT22;2117;47.972;7.830;2023-07-02T11:13:17;21.90;99.90
4207;DHT22;2117;47.972;7.830;2023-07-02T11:15:44;21.90;99.90
4207;DHT22;2117;47.972;7.830;2023-07-02T11:18:15;21.80;99.90
4207;DHT22;2117;47.972;7.830;2023-07-02T11:20:45;21.80;99.90
4207;DHT22;2117;47.972;7.830;2023-07-02T11:23:21;21.80;99.90
4207;DHT22;2117;47.972;7.830;2023-07-02T11:26:00;21.90;99.90
4207;DHT22;2117;47.972;7.830;2023-07-02T11:28:27;21.90;99.90
4207;DHT22;2117;47.972;7.830;2023-07-02T11:30:52;21.80;99.90
4207;DHT22;2117;47.972;7.830;2023-07-02T11:33:20;21.90;99.90
4207;DHT22;2117;47.972;7.830;2023-07-02T11:35:46;21.80;99.90
4207;DHT22;2117;47.972;7.830;2023-07-02T11:38:11;21.80;99.90
4207;DHT22;2117;47.972;7.830;2023-07-02T11:40:37;21.90;99.90
4207;DHT22;2117;47.972;7.830;2023-07-02T11:43:03;21.90;99.90
4207;DHT22;2117;47.972;7.830;2023-07-02T11:45:29;22.00;99.90
4207;DHT22;2117;47.972;7.830;2023-07-02T11:47:55;22.20;99.90
4207;DHT22;2117;47.972;7.830;2023-07-02T11:50:20;22.40;99.90
4207;DHT22;2117;47.972;7.830;2023-07-02T11:52:46;22.40;99.90
4207;DHT22;2117;47.972;7.830;2023-07-02T11:55:11;22.50;99.90
4207;DHT22;2117;47.972;7.830;2023-07-02T11:57:37;22.60;99.90
4207;DHT22;2117;47.972;7.830;2023-07-02T12:00:04;22.70;99.90
4207;DHT22;2117;47.972;7.830;2023-07-02T12:02:29;22.80;99.90
4207;DHT22;2117;47.972;7.830;2023-07-02T12:04:55;22.90;99.90
4207;DHT22;2117;47.972;7.830;2023-07-02T12:07:20;23.30;99.90
4207;DHT22;2117;47.972;7.830;2023-07-02T12:09:46;23.90;99.90
4207;DHT22;2117;47.972;7.830;2023-07-02T12:12:12;24.40;99.90
4207;DHT22;2117;47.972;7.830;2023-07-02T12:14:38;24.40;99.90
4207;DHT22;2117;47.972;7.830;2023-07-02T12:17:07;24.10;99.90
4207;DHT22;2117;47.972;7.830;2023-07-02T12:19:32;24.50;99.90
4207;DHT22;2117;47.972;7.830;2023-07-02T12:21:58;24.80;99.90
4207;DHT22;2117;47.972;7.830;2023-07-02T12:24:23;25.00;99.90
4207;DHT22;2117;47.972;7.830;2023-07-02T12:26:49;25.00;99.90
4207;DHT22;2117;47.972;7.830;2023-07-02T12:29:14;25.00;99.90
4207;DHT22;2117;47.972;7.830;2023-07-02T12:31:40;24.90;99.90
4207;DHT22;2117;47.972;7.830;2023-07-02T12:34:05;25.10;99.90
4207;DHT22;2117;47.972;7.830;2023-07-02T12:36:31;25.10;99.90
4207;DHT22;2117;47.972;7.830;2023-07-02T12:38:56;24.80;99.90
4207;DHT22;2117;47.972;7.830;2023-07-02T12:41:22;24.70;99.90
4207;DHT22;2117;47.972;7.830;2023-07-02T12:43:48;24.70;99.90
4207;DHT22;2117;47.972;7.830;2023-07-02T12:46:13;24.80;99.90
4207;DHT22;2117;47.972;7.830;2023-07-02T12:48:39;24.90;99.90
4207;DHT22;2117;47.972;7.830;2023-07-02T12:51:04;24.90;99.90
4207;DHT22;2117;47.972;7.830;2023-07-02T12:53:30;24.90;99.90
4207;DHT22;2117;47.972;7.830;2023-07-02T12:55:55;25.40;99.90
4207;DHT22;2117;47.972;7.830;2023-07-02T12:58:21;26.20;99.90
4207;DHT22;2117;47.972;7.830;2023-07-02T13:00:47;26.40;99.90
4207;DHT22;2117;47.972;7.830;2023-07-02T13:03:13;26.40;99.90
4207;DHT22;2117;47.972;7.830;2023-07-02T13:05:39;26.50;99.90
4207;DHT22;2117;47.972;7.830;2023-07-02T13:08:05;26.90;99.90
4207;DHT22;2117;47.972;7.830;2023-07-02T13:10:32;27.00;99.90
4207;DHT22;2117;47.972;7.830;2023-07-02T13:12:58;27.30;99.90
4207;DHT22;2117;47.972;7.830;2023-07-02T13:15:23;27.60;99.90
4207;DHT22;2117;47.972;7.830;2023-07-02T13:17:49;27.30;99.90
4207;DHT22;2117;47.972;7.830;2023-07-02T13:20:15;27.60;99.90
4207;DHT22;2117;47.972;7.830;2023-07-02T13:22:40;27.60;99.90
4207;DHT22;2117;47.972;7.830;2023-07-02T13:25:06;27.80;99.90
4207;DHT22;2117;47.972;7.830;2023-07-02T13:27:32;27.80;99.90
4207;DHT22;2117;47.972;7.830;2023-07-02T13:29:57;27.90;99.90
4207;DHT22;2117;47.972;7.830;2023-07-02T13:32:23;28.00;99.90
4207;DHT22;2117;47.972;7.830;2023-07-02T13:34:49;27.40;99.70
4207;DHT22;2117;47.972;7.830;2023-07-02T13:37:15;27.20;99.90
4207;DHT22;2117;47.972;7.830;2023-07-02T13:39:47;27.30;99.90
4207;DHT22;2117;47.972;7.830;2023-07-02T13:42:13;27.50;99.90
4207;DHT22;2117;47.972;7.830;2023-07-02T13:44:38;27.40;99.90
4207;DHT22;2117;47.972;7.830;2023-07-02T13:47:04;27.60;99.80
4207;DHT22;2117;47.972;7.830;2023-07-02T13:49:31;27.80;99.20
4207;DHT22;2117;47.972;7.830;2023-07-02T13:51:57;27.30;98.30
4207;DHT22;2117;47.972;7.830;2023-07-02T13:54:22;27.60;99.00
4207;DHT22;2117;47.972;7.830;2023-07-02T13:56:48;27.80;98.00
4207;DHT22;2117;47.972;7.830;2023-07-02T13:59:15;27.90;98.40
4207;DHT22;2117;47.972;7.830;2023-07-02T14:01:42;28.10;98.00
4207;DHT22;2117;47.972;7.830;2023-07-02T14:04:08;28.30;96.80
4207;DHT22;2117;47.972;7.830;2023-07-02T14:06:33;28.80;97.00
4207;DHT22;2117;47.972;7.830;2023-07-02T14:08:59;29.20;96.20
4207;DHT22;2117;47.972;7.830;2023-07-02T14:11:25;29.40;95.80
4207;DHT22;2117;47.972;7.830;2023-07-02T14:13:53;29.60;95.10
4207;DHT22;2117;47.972;7.830;2023-07-02T14:16:19;29.50;94.30
4207;DHT22;2117;47.972;7.830;2023-07-02T14:18:44;29.80;93.90
4207;DHT22;2117;47.972;7.830;2023-07-02T14:21:10;30.10;93.90
4207;DHT22;2117;47.972;7.830;2023-07-02T14:23:35;30.20;92.60
4207;DHT22;2117;47.972;7.830;2023-07-02T14:26:01;30.50;93.50
4207;DHT22;2117;47.972;7.830;2023-07-02T14:28:26;30.60;91.50
4207;DHT22;2117;47.972;7.830;2023-07-02T14:30:59;30.50;92.00
4207;DHT22;2117;47.972;7.830;2023-07-02T14:33:26;30.20;91.40
4207;DHT22;2117;47.972;7.830;2023-07-02T14:35:52;30.70;92.60
4207;DHT22;2117;47.972;7.830;2023-07-02T14:38:18;31.40;91.90
4207;DHT22;2117;47.972;7.830;2023-07-02T14:40:43;32.40;91.10
4207;DHT22;2117;47.972;7.830;2023-07-02T14:43:09;33.10;90.70
4207;DHT22;2117;47.972;7.830;2023-07-02T14:45:34;33.40;85.90
4207;DHT22;2117;47.972;7.830;2023-07-02T14:48:00;33.60;81.40
4207;DHT22;2117;47.972;7.830;2023-07-02T14:50:26;32.90;80.00
4207;DHT22;2117;47.972;7.830;2023-07-02T14:52:52;31.70;80.20
4207;DHT22;2117;47.972;7.830;2023-07-02T14:55:18;31.80;85.60
4207;DHT22;2117;47.972;7.830;2023-07-02T14:57:43;32.60;80.60
4207;DHT22;2117;47.972;7.830;2023-07-02T15:00:09;32.50;78.80
4207;DHT22;2117;47.972;7.830;2023-07-02T15:02:35;32.60;78.40
4207;DHT22;2117;47.972;7.830;2023-07-02T15:05:01;33.00;76.70
4207;DHT22;2117;47.972;7.830;2023-07-02T15:07:28;33.40;75.20
4207;DHT22;2117;47.972;7.830;2023-07-02T15:09:53;33.50;74.40
4207;DHT22;2117;47.972;7.830;2023-07-02T15:12:19;34.10;77.50
4207;DHT22;2117;47.972;7.830;2023-07-02T15:14:44;34.30;72.20
4207;DHT22;2117;47.972;7.830;2023-07-02T15:17:10;34.30;72.30
4207;DHT22;2117;47.972;7.830;2023-07-02T15:19:36;33.80;71.70
4207;DHT22;2117;47.972;7.830;2023-07-02T15:22:01;33.40;70.90
4207;DHT22;2117;47.972;7.830;2023-07-02T15:24:27;32.30;69.50
4207;DHT22;2117;47.972;7.830;2023-07-02T15:26:52;32.20;71.20
4207;DHT22;2117;47.972;7.830;2023-07-02T15:29:18;31.70;71.60
4207;DHT22;2117;47.972;7.830;2023-07-02T15:31:44;32.10;72.50
4207;DHT22;2117;47.972;7.830;2023-07-02T15:34:11;31.80;73.40
4207;DHT22;2117;47.972;7.830;2023-07-02T15:36:41;31.80;73.80
4207;DHT22;2117;47.972;7.830;2023-07-02T15:39:07;32.00;72.60
4207;DHT22;2117;47.972;7.830;2023-07-02T15:41:33;32.60;74.40
4207;DHT22;2117;47.972;7.830;2023-07-02T15:43:59;33.80;71.40
4207;DHT22;2117;47.972;7.830;2023-07-02T15:46:28;33.30;71.90
4207;DHT22;2117;47.972;7.830;2023-07-02T15:48:54;33.40;70.80
4207;DHT22;2117;47.972;7.830;2023-07-02T15:51:20;33.70;70.90
4207;DHT22;2117;47.972;7.830;2023-07-02T15:53:45;32.90;71.00
4207;DHT22;2117;47.972;7.830;2023-07-02T15:56:11;32.70;70.10
4207;DHT22;2117;47.972;7.830;2023-07-02T15:58:37;31.40;71.90
4207;DHT22;2117;47.972;7.830;2023-07-02T16:01:14;30.90;74.10
4207;DHT22;2117;47.972;7.830;2023-07-02T16:03:40;30.60;74.60
4207;DHT22;2117;47.972;7.830;2023-07-02T16:06:07;31.40;74.10
4207;DHT22;2117;47.972;7.830;2023-07-02T16:08:33;31.80;72.40
4207;DHT22;2117;47.972;7.830;2023-07-02T16:10:59;32.30;73.30
4207;DHT22;2117;47.972;7.830;2023-07-02T16:13:24;32.40;73.20
4207;DHT22;2117;47.972;7.830;2023-07-02T16:15:50;32.20;70.40
4207;DHT22;2117;47.972;7.830;2023-07-02T16:18:16;31.30;71.30
4207;DHT22;2117;47.972;7.830;2023-07-02T16:20:41;30.30;73.00
4207;DHT22;2117;47.972;7.830;2023-07-02T16:23:07;29.80;74.40
4207;DHT22;2117;47.972;7.830;2023-07-02T16:25:36;29.20;75.20
4207;DHT22;2117;47.972;7.830;2023-07-02T16:28:02;29.00;76.20
4207;DHT22;2117;47.972;7.830;2023-07-02T16:30:28;28.80;75.90
4207;DHT22;2117;47.972;7.830;2023-07-02T16:32:54;28.60;76.90
4207;DHT22;2117;47.972;7.830;2023-07-02T16:35:19;28.40;74.50
4207;DHT22;2117;47.972;7.830;2023-07-02T16:37:45;28.30;75.80
4207;DHT22;2117;47.972;7.830;2023-07-02T16:40:11;28.10;76.50
4207;DHT22;2117;47.972;7.830;2023-07-02T16:42:36;27.90;76.00
4207;DHT22;2117;47.972;7.830;2023-07-02T16:45:02;27.50;74.50
4207;DHT22;2117;47.972;7.830;2023-07-02T16:47:32;27.40;75.40
4207;DHT22;2117;47.972;7.830;2023-07-02T16:50:02;27.10;77.60
4207;DHT22;2117;47.972;7.830;2023-07-02T16:52:28;27.10;78.90
4207;DHT22;2117;47.972;7.830;2023-07-02T16:54:53;26.80;77.10
4207;DHT22;2117;47.972;7.830;2023-07-02T16:57:19;26.80;78.30
4207;DHT22;2117;47.972;7.830;2023-07-02T16:59:44;26.60;76.70
4207;DHT22;2117;47.972;7.830;2023-07-02T17:02:10;26.50;77.10
4207;DHT22;2117;47.972;7.830;2023-07-02T17:04:35;26.10;77.60
4207;DHT22;2117;47.972;7.830;2023-07-02T17:07:01;26.10;78.50
4207;DHT22;2117;47.972;7.830;2023-07-02T17:09:30;25.80;78.90
4207;DHT22;2117;47.972;7.830;2023-07-02T17:12:01;25.60;79.30
4207;DHT22;2117;47.972;7.830;2023-07-02T17:14:28;25.40;79.40
4207;DHT22;2117;47.972;7.830;2023-07-02T17:16:58;25.40;80.10